Time;durP1;ratioP1;P1;durP2;ratioP2;P2;SDS_P1;SDS_P2;PMS_P1;PMS_P2;Temp;Humidity;BMP_temperature;BMP_pressure;BME280_temperature;BME280_humidity;BME280_pressure;Samples;Min_cycle;Max_cycle;Signal;HPM_P1;HPM_P2
2021/06/29 00:00:30;;;;;;;7.28;4.40;;;;;;;;;;6215718;23;20000;-50
2021/06/29 00:03:01;;;;;;;6.30;4.13;;;;;;;;;;6215279;23;20015;-50
2021/06/29 00:05:27;;;;;;;6.85;3.90;;;;;;;;;;6215160;23;20001;-50
2021/06/29 00:07:53;;;;;;;6.35;4.55;;;;;;;;;;6214952;23;20047;-51
2021/06/29 00:10:19;;;;;;;4.95;4.20;;;;;;;;;;6214953;23;20028;-50
2021/06/29 00:12:45;;;;;;;6.40;4.25;;;;;;;;;;6188584;23;20004;-51
2021/06/29 00:15:11;;;;;;;5.78;4.70;;;;;;;;;;6215439;23;19996;-50
2021/06/29 00:17:37;;;;;;;6.40;4.60;;;;;;;;;;6214821;23;20004;-54
2021/06/29 00:20:04;;;;;;;9.48;4.63;;;;;;;;;;6215569;23;20001;-52
2021/06/29 00:22:30;;;;;;;11.25;5.13;;;;;;;;;;6214791;23;20010;-51
2021/06/29 00:24:56;;;;;;;5.95;4.25;;;;;;;;;;6214780;23;20009;-51
2021/06/29 00:27:22;;;;;;;6.25;4.45;;;;;;;;;;6215109;23;20294;-50
2021/06/29 00:29:48;;;;;;;7.32;4.70;;;;;;;;;;6214465;23;20007;-51
2021/06/29 00:32:14;;;;;;;6.63;4.32;;;;;;;;;;6214697;23;20001;-51
2021/06/29 00:34:40;;;;;;;4.80;3.83;;;;;;;;;;6214697;23;20005;-52
2021/06/29 00:37:06;;;;;;;5.40;4.60;;;;;;;;;;6214894;23;19997;-49
2021/06/29 00:39:32;;;;;;;6.43;5.05;;;;;;;;;;6214361;23;20448;-49
2021/06/29 00:41:58;;;;;;;6.45;4.53;;;;;;;;;;6215316;23;20001;-50
2021/06/29 00:44:24;;;;;;;4.93;4.40;;;;;;;;;;6215222;23;20020;-50
2021/06/29 00:46:51;;;;;;;4.85;4.25;;;;;;;;;;6214240;23;20027;-51
2021/06/29 00:49:18;;;;;;;7.25;4.75;;;;;;;;;;6213944;23;20425;-50
2021/06/29 00:51:44;;;;;;;6.30;4.35;;;;;;;;;;6214132;23;20043;-52
2021/06/29 00:54:13;;;;;;;5.30;4.10;;;;;;;;;;6214345;23;20001;-50
2021/06/29 00:56:39;;;;;;;7.57;4.72;;;;;;;;;;6213969;23;20001;-50
2021/06/29 00:59:05;;;;;;;8.70;4.90;;;;;;;;;;6214177;23;20440;-53
2021/06/29 01:01:31;;;;;;;6.00;5.13;;;;;;;;;;6214836;23;20007;-50
2021/06/29 01:03:57;;;;;;;5.50;4.78;;;;;;;;;;6214795;23;20008;-53
2021/06/29 01:06:23;;;;;;;5.30;4.38;;;;;;;;;;6214801;23;20738;-51
2021/06/29 01:08:49;;;;;;;4.75;4.25;;;;;;;;;;6213855;23;20008;-50
2021/06/29 01:11:15;;;;;;;8.68;5.22;;;;;;;;;;6214524;23;20007;-51
2021/06/29 01:13:42;;;;;;;5.43;4.53;;;;;;;;;;6214648;23;19996;-50
2021/06/29 01:16:09;;;;;;;6.90;4.95;;;;;;;;;;6214412;23;20310;-50
2021/06/29 01:18:35;;;;;;;5.80;5.00;;;;;;;;;;6214534;23;20005;-50
2021/06/29 01:21:02;;;;;;;5.53;4.82;;;;;;;;;;6214692;23;20008;-54
2021/06/29 01:23:29;;;;;;;7.55;5.30;;;;;;;;;;6214291;23;20005;-51
2021/06/29 01:26:21;;;;;;;4.85;4.35;;;;;;;;;;6214544;23;20306;-50
2021/06/29 01:29:02;;;;;;;7.97;4.85;;;;;;;;;;6214299;23;20496;-51
2021/06/29 01:31:28;;;;;;;6.85;5.05;;;;;;;;;;6215068;23;20379;-51
2021/06/29 01:33:54;;;;;;;8.23;5.00;;;;;;;;;;6214601;23;20023;-50
2021/06/29 01:36:22;;;;;;;8.73;4.85;;;;;;;;;;6214919;23;20289;-50
2021/06/29 01:38:49;;;;;;;6.22;5.30;;;;;;;;;;6213919;23;20009;-51
2021/06/29 01:41:16;;;;;;;6.05;5.05;;;;;;;;;;6214354;23;20012;-50
2021/06/29 01:43:47;;;;;;;7.20;5.45;;;;;;;;;;6214314;23;20000;-50
2021/06/29 01:46:15;;;;;;;7.18;5.10;;;;;;;;;;6214839;23;20028;-51
2021/06/29 01:48:59;;;;;;;8.35;5.03;;;;;;;;;;6213770;23;20009;-55
2021/06/29 01:51:25;;;;;;;6.68;5.18;;;;;;;;;;6214699;23;20005;-53
2021/06/29 01:53:52;;;;;;;6.47;5.07;;;;;;;;;;6213618;23;20024;-54
2021/06/29 01:56:23;;;;;;;9.07;5.28;;;;;;;;;;6213326;23;20039;-51
2021/06/29 01:58:54;;;;;;;6.82;5.30;;;;;;;;;;6214332;23;20054;-50
2021/06/29 02:01:20;;;;;;;6.85;4.88;;;;;;;;;;6214557;23;20443;-51
2021/06/29 02:03:46;;;;;;;7.78;5.57;;;;;;;;;;6214756;23;20012;-52
2021/06/29 02:06:12;;;;;;;6.72;5.57;;;;;;;;;;6214649;23;20320;-51
2021/06/29 02:08:38;;;;;;;8.70;6.78;;;;;;;;;;6213838;23;20039;-50
2021/06/29 02:11:04;;;;;;;7.32;5.40;;;;;;;;;;6214387;23;20035;-51
2021/06/29 02:13:30;;;;;;;8.68;5.35;;;;;;;;;;6214589;23;19996;-54
2021/06/29 02:15:57;;;;;;;7.13;5.40;;;;;;;;;;6215933;23;20021;-52
2021/06/29 02:18:23;;;;;;;7.53;5.78;;;;;;;;;;6216247;23;20025;-51
2021/06/29 02:20:49;;;;;;;8.90;5.47;;;;;;;;;;6216679;23;20067;-50
2021/06/29 02:23:16;;;;;;;6.45;5.55;;;;;;;;;;6189384;23;20039;-50
2021/06/29 02:25:42;;;;;;;8.25;6.00;;;;;;;;;;6215856;23;20346;-51
2021/06/29 02:28:07;;;;;;;7.28;6.03;;;;;;;;;;6215871;23;20082;-50
2021/06/29 02:30:34;;;;;;;9.15;6.57;;;;;;;;;;6216428;23;20072;-50
2021/06/29 02:33:00;;;;;;;6.65;6.00;;;;;;;;;;6189536;23;20047;-52
2021/06/29 02:35:26;;;;;;;8.65;6.50;;;;;;;;;;6216004;23;20000;-50
2021/06/29 02:37:52;;;;;;;6.97;5.65;;;;;;;;;;6215851;23;20012;-50
2021/06/29 02:40:18;;;;;;;9.35;6.53;;;;;;;;;;6216237;23;20001;-51
2021/06/29 02:42:44;;;;;;;7.20;6.13;;;;;;;;;;6216292;23;20012;-50
2021/06/29 02:45:16;;;;;;;5.70;5.10;;;;;;;;;;6216029;23;20009;-51
2021/06/29 02:47:42;;;;;;;6.07;5.43;;;;;;;;;;6215520;23;19997;-54
2021/06/29 02:50:09;;;;;;;7.28;5.72;;;;;;;;;;6216110;23;20004;-50
2021/06/29 02:52:35;;;;;;;7.53;6.13;;;;;;;;;;6215839;23;20047;-50
2021/06/29 02:55:01;;;;;;;9.10;5.75;;;;;;;;;;6215990;23;20463;-51
2021/06/29 02:57:27;;;;;;;6.82;5.85;;;;;;;;;;6216242;23;20075;-50
2021/06/29 02:59:54;;;;;;;6.65;6.00;;;;;;;;;;6215440;23;20043;-50
2021/06/29 03:02:20;;;;;;;7.72;6.88;;;;;;;;;;6215660;23;20092;-52
2021/06/29 03:04:46;;;;;;;8.20;6.55;;;;;;;;;;6215967;23;20297;-51
2021/06/29 03:07:12;;;;;;;6.95;5.95;;;;;;;;;;6216232;23;20000;-50
2021/06/29 03:09:38;;;;;;;7.78;6.53;;;;;;;;;;6215261;23;20001;-51
2021/06/29 03:12:04;;;;;;;7.43;6.50;;;;;;;;;;6215759;23;20001;-51
2021/06/29 03:14:35;;;;;;;9.32;6.95;;;;;;;;;;6215653;23;20448;-51
2021/06/29 03:17:00;;;;;;;7.70;6.65;;;;;;;;;;6215792;23;20590;-50
2021/06/29 03:19:26;;;;;;;8.43;6.60;;;;;;;;;;6215091;23;20004;-54
2021/06/29 03:21:52;;;;;;;10.20;6.68;;;;;;;;;;6215297;23;20594;-50
2021/06/29 03:24:18;;;;;;;7.85;6.38;;;;;;;;;;6214750;23;20012;-50
2021/06/29 03:26:44;;;;;;;9.43;6.63;;;;;;;;;;6215922;23;20005;-50
2021/06/29 03:29:10;;;;;;;8.48;6.90;;;;;;;;;;6215216;23;20044;-50
2021/06/29 03:31:36;;;;;;;7.60;6.00;;;;;;;;;;6215596;23;20301;-50
2021/06/29 03:34:02;;;;;;;8.15;6.90;;;;;;;;;;6215547;23;20001;-50
2021/06/29 03:36:30;;;;;;;11.60;7.53;;;;;;;;;;6215654;23;20417;-50
2021/06/29 03:38:56;;;;;;;10.02;7.90;;;;;;;;;;6188461;23;20019;-49
2021/06/29 03:41:22;;;;;;;9.77;8.02;;;;;;;;;;6215062;23;20486;-53
2021/06/29 03:43:48;;;;;;;10.05;8.13;;;;;;;;;;6216021;23;20393;-50
2021/06/29 03:46:14;;;;;;;11.20;8.10;;;;;;;;;;6215512;23;20001;-51
2021/06/29 03:48:40;;;;;;;8.77;7.88;;;;;;;;;;6214438;23;20017;-50
2021/06/29 03:51:06;;;;;;;9.70;7.13;;;;;;;;;;6188588;23;20478;-52
2021/06/29 03:53:32;;;;;;;11.02;6.43;;;;;;;;;;6215436;23;20058;-51
2021/06/29 03:55:58;;;;;;;8.65;7.43;;;;;;;;;;6216365;23;20027;-50
2021/06/29 03:58:24;;;;;;;7.68;6.88;;;;;;;;;;6214464;23;20005;-50
2021/06/29 04:00:49;;;;;;;9.77;6.90;;;;;;;;;;6215007;23;20009;-50
2021/06/29 04:03:15;;;;;;;8.88;7.22;;;;;;;;;;6215369;23;20031;-53
2021/06/29 04:05:41;;;;;;;9.30;7.65;;;;;;;;;;6215463;23;20008;-53
2021/06/29 04:08:07;;;;;;;8.60;7.30;;;;;;;;;;6214647;23;20303;-50
2021/06/29 04:10:34;;;;;;;11.82;7.88;;;;;;;;;;6215433;23;19993;-50
2021/06/29 04:13:00;;;;;;;9.20;7.50;;;;;;;;;;6215437;23;20005;-51
2021/06/29 04:15:26;;;;;;;7.90;7.10;;;;;;;;;;6188005;23;20151;-52
2021/06/29 04:17:52;;;;;;;9.32;7.43;;;;;;;;;;6214724;23;20001;-50
2021/06/29 04:20:18;;;;;;;10.18;6.97;;;;;;;;;;6215170;23;20001;-50
2021/06/29 04:22:44;;;;;;;8.57;7.35;;;;;;;;;;6214878;23;20475;-50
2021/06/29 04:25:11;;;;;;;7.97;6.78;;;;;;;;;;6215084;23;20001;-50
2021/06/29 04:27:37;;;;;;;8.50;6.72;;;;;;;;;;6214791;23;20001;-52
2021/06/29 04:30:05;;;;;;;8.80;7.53;;;;;;;;;;6214824;23;20063;-51
2021/06/29 04:32:31;;;;;;;9.18;8.23;;;;;;;;;;6214711;23;20084;-49
2021/06/29 04:34:57;;;;;;;9.30;7.45;;;;;;;;;;6215048;23;20001;-50
2021/06/29 04:37:22;;;;;;;11.07;8.40;;;;;;;;;;6214927;23;20000;-50
2021/06/29 04:39:49;;;;;;;9.18;7.82;;;;;;;;;;6214005;23;20012;-50
2021/06/29 04:42:14;;;;;;;9.80;8.35;;;;;;;;;;6214651;23;20005;-51
2021/06/29 04:44:40;;;;;;;8.88;7.07;;;;;;;;;;6214865;23;20039;-50
2021/06/29 04:47:07;;;;;;;8.30;7.45;;;;;;;;;;6214409;23;20341;-50
2021/06/29 04:49:34;;;;;;;10.60;8.07;;;;;;;;;;6214199;23;20016;-51
2021/06/29 04:52:00;;;;;;;9.45;7.85;;;;;;;;;;6215132;23;19997;-49
2021/06/29 04:54:26;;;;;;;8.43;7.50;;;;;;;;;;6214029;23;20007;-50
2021/06/29 04:56:52;;;;;;;9.88;8.23;;;;;;;;;;6214449;23;20028;-52
2021/06/29 04:59:18;;;;;;;8.63;7.40;;;;;;;;;;6214559;23;20366;-51
2021/06/29 05:01:44;;;;;;;10.25;7.82;;;;;;;;;;6214802;23;20059;-50
2021/06/29 05:04:10;;;;;;;9.50;8.30;;;;;;;;;;6214734;23;20004;-50
2021/06/29 05:06:36;;;;;;;11.35;8.45;;;;;;;;;;6214762;23;20051;-50
2021/06/29 05:09:02;;;;;;;9.52;8.32;;;;;;;;;;6214522;23;20054;-50
2021/06/29 05:11:28;;;;;;;10.77;7.90;;;;;;;;;;6188296;23;20385;-51
2021/06/29 05:13:54;;;;;;;10.98;8.02;;;;;;;;;;6215253;23;19997;-50
2021/06/29 05:16:20;;;;;;;10.52;8.85;;;;;;;;;;6214502;23;20011;-50
2021/06/29 05:18:46;;;;;;;9.23;7.90;;;;;;;;;;6214158;23;20032;-52
2021/06/29 05:21:12;;;;;;;9.07;8.10;;;;;;;;;;6214547;23;20004;-53
2021/06/29 05:23:38;;;;;;;9.82;8.35;;;;;;;;;;6214285;23;20373;-51
2021/06/29 05:26:04;;;;;;;9.50;7.78;;;;;;;;;;6214346;23;20011;-50
2021/06/29 05:28:30;;;;;;;11.20;8.05;;;;;;;;;;6213784;23;20278;-50
2021/06/29 05:30:56;;;;;;;9.52;8.40;;;;;;;;;;6214333;23;20052;-50
2021/06/29 05:33:22;;;;;;;11.77;8.45;;;;;;;;;;6213210;23;20055;-50
2021/06/29 05:35:48;;;;;;;11.02;8.15;;;;;;;;;;6212988;23;20004;-50
2021/06/29 05:38:14;;;;;;;9.95;7.85;;;;;;;;;;6211915;23;20004;-55
2021/06/29 05:40:40;;;;;;;11.13;7.63;;;;;;;;;;6185844;23;20005;-50
2021/06/29 05:43:06;;;;;;;10.57;7.95;;;;;;;;;;6212819;23;20007;-50
2021/06/29 05:45:32;;;;;;;13.73;9.63;;;;;;;;;;6212281;23;20001;-51
2021/06/29 05:47:58;;;;;;;9.70;8.30;;;;;;;;;;6211461;23;20028;-50
2021/06/29 05:50:25;;;;;;;13.60;9.73;;;;;;;;;;6211747;23;20000;-50
2021/06/29 05:52:51;;;;;;;9.48;8.30;;;;;;;;;;6211762;23;20004;-50
2021/06/29 05:55:17;;;;;;;14.02;9.80;;;;;;;;;;6212149;23;20409;-50
2021/06/29 05:57:43;;;;;;;12.68;8.90;;;;;;;;;;6210634;23;20029;-51
2021/06/29 06:00:11;;;;;;;9.85;8.43;;;;;;;;;;6211886;23;20005;-50
2021/06/29 06:02:38;;;;;;;15.80;8.68;;;;;;;;;;6211882;23;20476;-53
2021/06/29 06:05:05;;;;;;;10.15;8.48;;;;;;;;;;6212889;23;20004;-50
2021/06/29 06:07:30;;;;;;;11.75;8.27;;;;;;;;;;6214301;23;20083;-51
2021/06/29 06:09:56;;;;;;;9.93;8.90;;;;;;;;;;6213368;23;20410;-51
2021/06/29 06:12:22;;;;;;;11.75;9.00;;;;;;;;;;6213383;23;20001;-51
2021/06/29 06:14:48;;;;;;;10.30;8.90;;;;;;;;;;6214439;23;20000;-51
2021/06/29 06:17:14;;;;;;;11.05;8.23;;;;;;;;;;6213765;23;20013;-54
2021/06/29 06:19:40;;;;;;;10.88;8.82;;;;;;;;;;6213534;23;20374;-51
2021/06/29 06:22:06;;;;;;;13.63;8.40;;;;;;;;;;6213928;23;20008;-50
2021/06/29 06:24:32;;;;;;;10.00;8.43;;;;;;;;;;6213745;23;20059;-50
2021/06/29 06:26:58;;;;;;;8.93;7.85;;;;;;;;;;6214054;23;20004;-52
2021/06/29 06:29:24;;;;;;;9.27;8.18;;;;;;;;;;6214150;23;19997;-50
2021/06/29 06:31:50;;;;;;;9.68;7.85;;;;;;;;;;6213723;23;20011;-50
2021/06/29 06:34:16;;;;;;;14.45;8.75;;;;;;;;;;6214270;23;20001;-52
2021/06/29 06:36:42;;;;;;;11.50;8.60;;;;;;;;;;6214150;23;19997;-50
2021/06/29 06:39:08;;;;;;;10.73;8.70;;;;;;;;;;6213914;23;20000;-51
2021/06/29 06:41:34;;;;;;;10.50;8.77;;;;;;;;;;6213917;23;20016;-50
2021/06/29 06:44:00;;;;;;;10.65;7.75;;;;;;;;;;6213511;23;20020;-52
2021/06/29 06:46:26;;;;;;;10.30;8.27;;;;;;;;;;6214542;23;20001;-50
2021/06/29 06:48:52;;;;;;;11.50;8.25;;;;;;;;;;6213183;23;20013;-52
2021/06/29 06:51:18;;;;;;;12.98;9.30;;;;;;;;;;6214262;23;20305;-50
2021/06/29 06:53:44;;;;;;;14.65;9.18;;;;;;;;;;6213431;23;20031;-53
2021/06/29 06:56:14;;;;;;;10.90;8.52;;;;;;;;;;6213788;23;20009;-53
2021/06/29 06:58:41;;;;;;;11.98;8.93;;;;;;;;;;6214187;23;20043;-50
2021/06/29 07:01:07;;;;;;;9.18;7.70;;;;;;;;;;6214315;23;20003;-51
2021/06/29 07:03:33;;;;;;;11.05;8.68;;;;;;;;;;6214969;23;20001;-50
2021/06/29 07:05:59;;;;;;;12.63;8.40;;;;;;;;;;6215816;23;20007;-50
2021/06/29 07:08:25;;;;;;;12.07;8.32;;;;;;;;;;6188201;23;20705;-51
2021/06/29 07:10:53;;;;;;;10.20;8.38;;;;;;;;;;6215609;23;20401;-51
2021/06/29 07:13:19;;;;;;;12.00;8.23;;;;;;;;;;6216233;23;20431;-50
2021/06/29 07:15:45;;;;;;;12.75;9.52;;;;;;;;;;6215671;23;20055;-51
2021/06/29 07:18:15;;;;;;;9.88;8.25;;;;;;;;;;6214958;23;20079;-50
2021/06/29 07:20:41;;;;;;;10.15;7.97;;;;;;;;;;6215452;23;20000;-50
2021/06/29 07:23:08;;;;;;;13.18;8.43;;;;;;;;;;6215886;23;20350;-50
2021/06/29 07:25:34;;;;;;;10.32;7.82;;;;;;;;;;6215707;23;20326;-53
2021/06/29 07:28:00;;;;;;;10.18;8.10;;;;;;;;;;6215062;23;20384;-51
2021/06/29 07:30:26;;;;;;;13.93;9.35;;;;;;;;;;6215498;23;20051;-51
2021/06/29 07:32:57;;;;;;;14.27;7.65;;;;;;;;;;6214866;23;20012;-53
2021/06/29 07:35:23;;;;;;;10.32;8.40;;;;;;;;;;6215520;23;20003;-50
2021/06/29 07:37:49;;;;;;;14.32;8.45;;;;;;;;;;6215007;23;20005;-50
2021/06/29 07:40:15;;;;;;;11.55;8.40;;;;;;;;;;6215426;23;20000;-51
2021/06/29 07:42:41;;;;;;;10.85;9.15;;;;;;;;;;6215423;23;20035;-50
2021/06/29 07:45:08;;;;;;;11.32;8.15;;;;;;;;;;6215437;23;20337;-52
2021/06/29 07:47:34;;;;;;;9.18;7.88;;;;;;;;;;6215184;23;20349;-55
2021/06/29 07:50:00;;;;;;;10.18;7.60;;;;;;;;;;6215087;23;20059;-50
2021/06/29 07:52:26;;;;;;;12.07;7.72;;;;;;;;;;6215338;23;20023;-54
2021/06/29 07:54:52;;;;;;;10.40;8.25;;;;;;;;;;6215522;23;20417;-50
2021/06/29 07:57:18;;;;;;;9.05;7.22;;;;;;;;;;6215173;23;20003;-52
2021/06/29 07:59:44;;;;;;;9.32;7.55;;;;;;;;;;6213966;23;20005;-50
2021/06/29 08:02:10;;;;;;;10.85;8.70;;;;;;;;;;6214827;23;20428;-51
2021/06/29 08:04:37;;;;;;;11.85;8.30;;;;;;;;;;6214744;23;20004;-51
2021/06/29 08:07:03;;;;;;;12.20;8.07;;;;;;;;;;6215713;23;20012;-56
2021/06/29 08:09:30;;;;;;;9.50;7.47;;;;;;;;;;6186821;23;20031;-52
2021/06/29 08:11:56;;;;;;;10.05;7.90;;;;;;;;;;6215190;23;20035;-51
2021/06/29 08:14:22;;;;;;;9.90;6.55;;;;;;;;;;6214302;23;20005;-55
2021/06/29 08:16:48;;;;;;;10.25;7.90;;;;;;;;;;6214903;23;20005;-53
2021/06/29 08:19:14;;;;;;;12.95;6.70;;;;;;;;;;6214182;23;20005;-50
2021/06/29 08:21:40;;;;;;;10.50;6.97;;;;;;;;;;6215289;23;20009;-53
2021/06/29 08:24:06;;;;;;;8.50;6.60;;;;;;;;;;6215172;23;20119;-54
2021/06/29 08:26:32;;;;;;;12.15;6.72;;;;;;;;;;6214998;23;20004;-52
2021/06/29 08:28:58;;;;;;;11.85;7.57;;;;;;;;;;6213954;23;20075;-52
2021/06/29 08:31:24;;;;;;;11.18;7.95;;;;;;;;;;6214229;23;20000;-52
2021/06/29 08:33:53;;;;;;;9.50;7.78;;;;;;;;;;6214902;23;20059;-51
2021/06/29 08:36:19;;;;;;;11.15;7.68;;;;;;;;;;6187909;23;20058;-51
2021/06/29 08:38:46;;;;;;;11.57;7.90;;;;;;;;;;6214326;23;20086;-52
2021/06/29 08:41:12;;;;;;;9.65;7.47;;;;;;;;;;6215407;23;20004;-50
2021/06/29 08:43:39;;;;;;;7.43;6.28;;;;;;;;;;6214678;23;20086;-52
2021/06/29 08:46:05;;;;;;;9.70;6.70;;;;;;;;;;6214291;23;20007;-52
2021/06/29 08:48:31;;;;;;;8.85;6.43;;;;;;;;;;6214370;23;20012;-52
2021/06/29 08:50:57;;;;;;;9.05;6.57;;;;;;;;;;6215164;23;20421;-53
2021/06/29 08:53:23;;;;;;;7.97;6.70;;;;;;;;;;6214926;23;20028;-50
2021/06/29 08:55:51;;;;;;;8.05;6.55;;;;;;;;;;6215072;23;20035;-51
2021/06/29 08:58:23;;;;;;;9.70;6.35;;;;;;;;;;6214284;23;20001;-50
2021/06/29 09:00:51;;;;;;;9.30;6.55;;;;;;;;;;6214119;23;20417;-51
2021/06/29 09:03:17;;;;;;;9.63;6.18;;;;;;;;;;6214646;23;20440;-52
2021/06/29 09:05:46;;;;;;;9.38;5.68;;;;;;;;;;6214858;23;20001;-52
2021/06/29 09:08:14;;;;;;;8.50;6.60;;;;;;;;;;6214590;23;20063;-51
2021/06/29 09:10:43;;;;;;;7.53;5.53;;;;;;;;;;6214525;23;20083;-50
2021/06/29 09:13:10;;;;;;;5.97;4.95;;;;;;;;;;6213447;23;20012;-50
2021/06/29 09:15:43;;;;;;;11.15;5.90;;;;;;;;;;6214645;23;20001;-51
2021/06/29 09:18:11;;;;;;;7.03;5.40;;;;;;;;;;6214487;23;20083;-51
2021/06/29 09:20:53;;;;;;;7.43;5.38;;;;;;;;;;6214628;23;20020;-52
2021/06/29 09:23:24;;;;;;;6.07;5.25;;;;;;;;;;6214779;23;20001;-53
2021/06/29 09:25:56;;;;;;;7.78;5.75;;;;;;;;;;6214643;23;20422;-57
2021/06/29 09:28:23;;;;;;;9.05;5.78;;;;;;;;;;6212140;23;20008;-54
2021/06/29 09:30:54;;;;;;;6.88;5.65;;;;;;;;;;6214010;23;20081;-52
2021/06/29 09:33:22;;;;;;;8.63;6.22;;;;;;;;;;6213531;23;20005;-54
2021/06/29 09:35:49;;;;;;;6.75;5.72;;;;;;;;;;6213804;23;20050;-51
2021/06/29 09:38:20;;;;;;;8.57;6.65;;;;;;;;;;6213558;23;20317;-56
2021/06/29 09:40:47;;;;;;;9.57;5.00;;;;;;;;;;6213353;23;19996;-51
2021/06/29 09:43:17;;;;;;;7.30;6.25;;;;;;;;;;6213244;23;20001;-51
2021/06/29 09:45:45;;;;;;;6.43;5.80;;;;;;;;;;6213148;23;20354;-51
2021/06/29 09:48:12;;;;;;;6.80;6.10;;;;;;;;;;6213072;23;20091;-51
2021/06/29 09:50:47;;;;;;;10.68;6.25;;;;;;;;;;6214358;23;20001;-50
2021/06/29 09:53:14;;;;;;;9.68;6.00;;;;;;;;;;6214378;23;19997;-51
2021/06/29 09:55:41;;;;;;;6.70;6.00;;;;;;;;;;6214127;23;20031;-55
2021/06/29 09:58:08;;;;;;;7.38;5.75;;;;;;;;;;6213351;23;20004;-53
2021/06/29 10:00:42;;;;;;;6.53;5.40;;;;;;;;;;6213175;23;19997;-50
2021/06/29 10:03:07;;;;;;;;;;;;;;;;;;6214858;23;20047;-51
2021/06/29 10:05:39;;;;;;;8.63;6.28;;;;;;;;;;6214154;23;19900;-50
2021/06/29 10:08:06;;;;;;;7.80;6.22;;;;;;;;;;6213975;23;19997;-53
2021/06/29 10:10:32;;;;;;;8.20;6.22;;;;;;;;;;6213902;23;20071;-53
2021/06/29 10:13:17;;;;;;;8.38;6.80;;;;;;;;;;6214317;23;20016;-51
2021/06/29 10:15:43;;;;;;;8.98;6.47;;;;;;;;;;6214454;23;20452;-52
2021/06/29 10:18:10;;;;;;;7.22;6.38;;;;;;;;;;6212742;23;20011;-50
2021/06/29 10:20:51;;;;;;;9.80;6.63;;;;;;;;;;6214073;23;20004;-51
2021/06/29 10:23:18;;;;;;;6.43;5.82;;;;;;;;;;6214551;23;20008;-55
2021/06/29 10:25:44;;;;;;;7.53;6.57;;;;;;;;;;6214170;23;20012;-50
2021/06/29 10:28:14;;;;;;;7.97;6.55;;;;;;;;;;6187288;23;20043;-52
2021/06/29 10:30:40;;;;;;;6.45;5.70;;;;;;;;;;6214187;23;19997;-55
2021/06/29 10:33:07;;;;;;;9.77;6.43;;;;;;;;;;6187305;23;19996;-50
2021/06/29 10:35:33;;;;;;;8.68;6.30;;;;;;;;;;6214281;23;20001;-52
2021/06/29 10:38:00;;;;;;;9.07;6.35;;;;;;;;;;6214546;23;20318;-51
2021/06/29 10:40:26;;;;;;;8.23;6.30;;;;;;;;;;6215994;23;20007;-50
2021/06/29 10:42:56;;;;;;;9.68;6.43;;;;;;;;;;6216153;23;20059;-51
2021/06/29 10:45:22;;;;;;;10.55;6.97;;;;;;;;;;6214831;23;20069;-50
2021/06/29 10:47:48;;;;;;;8.18;6.32;;;;;;;;;;6212783;23;20064;-50
2021/06/29 10:50:14;;;;;;;12.40;6.95;;;;;;;;;;6214275;23;20004;-52
2021/06/29 10:52:42;;;;;;;6.95;6.22;;;;;;;;;;6215105;23;20020;-52
2021/06/29 10:55:25;;;;;;;10.93;6.50;;;;;;;;;;6214743;23;20308;-56
2021/06/29 10:57:53;;;;;;;9.50;6.37;;;;;;;;;;6213883;23;20063;-50
2021/06/29 11:00:19;;;;;;;10.98;6.07;;;;;;;;;;6214100;23;20005;-54
2021/06/29 11:02:57;;;;;;;7.10;5.55;;;;;;;;;;6215191;23;20084;-52
2021/06/29 11:05:26;;;;;;;6.68;5.43;;;;;;;;;;6215689;23;20009;-52
2021/06/29 11:07:52;;;;;;;10.70;5.90;;;;;;;;;;6188403;23;20016;-52
2021/06/29 11:10:29;;;;;;;7.75;6.18;;;;;;;;;;6214681;23;20000;-50
2021/06/29 11:12:58;;;;;;;7.10;6.07;;;;;;;;;;6215831;23;20004;-52
2021/06/29 11:15:40;;;;;;;6.95;5.60;;;;;;;;;;6215449;23;20043;-54
2021/06/29 11:18:06;;;;;;;7.68;5.97;;;;;;;;;;6213650;23;20003;-52
2021/06/29 11:20:40;;;;;;;8.25;6.60;;;;;;;;;;6214824;23;20009;-50
2021/06/29 11:23:09;;;;;;;6.65;5.90;;;;;;;;;;6215286;23;20005;-50
2021/06/29 11:25:38;;;;;;;7.78;5.88;;;;;;;;;;6215455;23;20001;-50
2021/06/29 11:28:14;;;;;;;10.07;6.35;;;;;;;;;;6215487;23;20005;-50
2021/06/29 11:30:53;;;;;;;7.00;5.75;;;;;;;;;;6214970;23;20596;-50
2021/06/29 11:33:36;;;;;;;6.35;5.75;;;;;;;;;;6212712;23;20021;-52
2021/06/29 11:36:03;;;;;;;7.05;6.07;;;;;;;;;;6213463;23;19996;-55
2021/06/29 11:38:34;;;;;;;8.68;6.05;;;;;;;;;;6214378;23;20056;-52
2021/06/29 11:41:19;;;;;;;6.22;5.63;;;;;;;;;;6212916;23;20012;-50
2021/06/29 11:43:45;;;;;;;8.23;6.40;;;;;;;;;;6214124;23;20001;-52
2021/06/29 11:46:11;;;;;;;7.97;5.38;;;;;;;;;;6214935;23;20004;-50
2021/06/29 11:48:43;;;;;;;8.40;5.88;;;;;;;;;;6214037;23;20047;-51
2021/06/29 11:51:10;;;;;;;16.65;6.20;;;;;;;;;;6214717;23;20001;-51
2021/06/29 11:53:40;;;;;;;10.98;6.00;;;;;;;;;;6215048;23;20003;-51
2021/06/29 11:56:09;;;;;;;8.57;5.50;;;;;;;;;;6215187;23;20011;-51
2021/06/29 11:58:44;;;;;;;8.73;5.72;;;;;;;;;;6214904;23;20008;-50
2021/06/29 12:01:10;;;;;;;8.45;6.57;;;;;;;;;;6214155;23;20107;-51
2021/06/29 12:03:36;;;;;;;11.20;6.05;;;;;;;;;;6214955;23;20008;-52
2021/06/29 12:06:02;;;;;;;6.82;5.85;;;;;;;;;;6215230;23;20008;-51
2021/06/29 12:08:28;;;;;;;6.93;5.40;;;;;;;;;;6214986;23;20435;-52
2021/06/29 12:10:57;;;;;;;7.00;5.18;;;;;;;;;;6215014;23;20004;-55
2021/06/29 12:13:25;;;;;;;5.28;4.75;;;;;;;;;;6215143;23;20020;-51
2021/06/29 12:15:53;;;;;;;5.18;4.53;;;;;;;;;;6215021;23;20012;-51
2021/06/29 12:18:20;;;;;;;5.82;4.18;;;;;;;;;;6187550;23;20001;-51
2021/06/29 12:20:48;;;;;;;5.40;3.78;;;;;;;;;;6214607;23;20004;-50
2021/06/29 12:23:15;;;;;;;6.25;3.90;;;;;;;;;;6215298;23;20345;-50
2021/06/29 12:25:45;;;;;;;4.97;3.40;;;;;;;;;;6215027;23;20043;-51
2021/06/29 12:28:22;;;;;;;5.35;3.63;;;;;;;;;;6214280;23;20008;-53
2021/06/29 12:30:56;;;;;;;4.60;3.35;;;;;;;;;;6215003;23;20126;-51
2021/06/29 12:33:30;;;;;;;6.32;3.55;;;;;;;;;;6215028;23;20001;-50
2021/06/29 12:36:01;;;;;;;5.30;3.30;;;;;;;;;;6188285;23;20000;-50
2021/06/29 12:38:28;;;;;;;8.43;3.70;;;;;;;;;;6214463;23;20325;-50
2021/06/29 12:40:56;;;;;;;5.38;3.67;;;;;;;;;;6214758;23;20081;-52
2021/06/29 12:43:24;;;;;;;5.43;3.80;;;;;;;;;;6214862;23;20000;-50
2021/06/29 12:45:50;;;;;;;5.95;4.50;;;;;;;;;;6214785;23;20001;-50
2021/06/29 12:48:17;;;;;;;5.10;4.10;;;;;;;;;;6213890;23;20011;-51
2021/06/29 12:50:54;;;;;;;10.93;4.68;;;;;;;;;;6214928;23;20000;-52
2021/06/29 12:53:21;;;;;;;5.40;4.00;;;;;;;;;;6214251;23;20072;-50
2021/06/29 12:55:47;;;;;;;8.93;3.50;;;;;;;;;;6214587;23;20005;-50
2021/06/29 12:58:13;;;;;;;8.57;4.43;;;;;;;;;;6214434;23;20001;-50
2021/06/29 13:00:44;;;;;;;5.47;3.40;;;;;;;;;;6214271;23;20637;-50
2021/06/29 13:03:11;;;;;;;11.63;3.88;;;;;;;;;;6215145;23;20352;-50
2021/06/29 13:05:37;;;;;;;3.85;3.40;;;;;;;;;;6214812;23;20066;-51
2021/06/29 13:08:14;;;;;;;3.88;3.40;;;;;;;;;;6213918;23;20004;-52
2021/06/29 13:10:40;;;;;;;6.45;3.92;;;;;;;;;;6214612;23;20019;-50
2021/06/29 13:13:13;;;;;;;12.55;4.63;;;;;;;;;;6214466;23;19997;-50
2021/06/29 13:15:39;;;;;;;5.25;4.15;;;;;;;;;;6214055;23;20039;-51
2021/06/29 13:18:05;;;;;;;7.70;3.90;;;;;;;;;;6212157;23;20689;-50
2021/06/29 13:20:33;;;;;;;5.93;4.05;;;;;;;;;;6212785;23;20012;-52
2021/06/29 13:22:59;;;;;;;6.18;4.05;;;;;;;;;;6212779;23;20011;-50
2021/06/29 13:25:26;;;;;;;6.32;4.05;;;;;;;;;;6212475;23;20019;-50
2021/06/29 13:27:52;;;;;;;6.60;3.70;;;;;;;;;;6211948;23;20820;-50
2021/06/29 13:30:18;;;;;;;4.07;3.67;;;;;;;;;;6212431;23;20433;-54
2021/06/29 13:32:51;;;;;;;7.10;4.10;;;;;;;;;;6212266;23;20020;-50
2021/06/29 13:35:18;;;;;;;5.35;4.00;;;;;;;;;;6212642;23;20001;-51
2021/06/29 13:37:46;;;;;;;4.22;3.60;;;;;;;;;;6213607;23;20353;-50
2021/06/29 13:40:13;;;;;;;4.35;3.55;;;;;;;;;;6213985;23;20004;-52
2021/06/29 13:42:39;;;;;;;5.55;3.67;;;;;;;;;;6214251;23;20028;-50
2021/06/29 13:45:07;;;;;;;6.70;3.80;;;;;;;;;;6214320;23;20005;-51
2021/06/29 13:47:45;;;;;;;6.78;4.00;;;;;;;;;;6213792;23;20055;-51
2021/06/29 13:50:12;;;;;;;5.68;3.88;;;;;;;;;;6183781;23;20044;-51
2021/06/29 13:52:52;;;;;;;10.48;3.70;;;;;;;;;;6184009;23;20005;-50
2021/06/29 13:55:18;;;;;;;8.52;3.40;;;;;;;;;;6184424;23;20033;-52
2021/06/29 13:57:44;;;;;;;4.50;3.20;;;;;;;;;;6183102;23;19997;-52
2021/06/29 14:00:20;;;;;;;9.00;3.60;;;;;;;;;;6184440;23;20005;-50
2021/06/29 14:02:58;;;;;;;3.35;3.03;;;;;;;;;;6183087;23;20088;-51
2021/06/29 14:05:35;;;;;;;3.78;3.20;;;;;;;;;;6183715;23;20040;-50
2021/06/29 14:08:19;;;;;;;4.90;3.35;;;;;;;;;;6184303;23;20124;-50
2021/06/29 14:10:47;;;;;;;5.53;3.40;;;;;;;;;;6184151;23;20008;-50
2021/06/29 14:13:13;;;;;;;8.23;3.85;;;;;;;;;;6186677;23;20329;-50
2021/06/29 14:15:39;;;;;;;5.78;2.88;;;;;;;;;;6186168;23;20325;-50
2021/06/29 14:18:05;;;;;;;4.53;3.40;;;;;;;;;;6185999;23;20001;-55
2021/06/29 14:20:32;;;;;;;6.43;3.20;;;;;;;;;;6186343;23;19997;-51
2021/06/29 14:22:58;;;;;;;4.15;3.13;;;;;;;;;;6186194;23;20388;-50
2021/06/29 14:25:24;;;;;;;4.00;3.60;;;;;;;;;;6186209;23;20001;-56
2021/06/29 14:27:51;;;;;;;5.70;3.35;;;;;;;;;;6186024;23;19993;-52
2021/06/29 14:30:18;;;;;;;8.18;3.97;;;;;;;;;;6186352;23;20009;-50
2021/06/29 14:32:44;;;;;;;7.72;3.88;;;;;;;;;;6159577;23;20097;-50
2021/06/29 14:35:10;;;;;;;5.80;4.05;;;;;;;;;;6185558;23;20713;-52
2021/06/29 14:37:36;;;;;;;4.25;3.38;;;;;;;;;;6184940;23;20043;-56
2021/06/29 14:40:03;;;;;;;3.70;3.28;;;;;;;;;;6186119;23;20019;-53
2021/06/29 14:42:29;;;;;;;3.45;3.13;;;;;;;;;;6186486;23;20083;-56